Clever, Missouri
Current Conditions -  °F | °C
As of 12:52 AM on Thursday 27 Nov 2014 (Local Time) from KSGF Reporting Station
Overcast Overcast  
Wind Chill: 20°   Ceiling: 2300
Heat Index: 31°   Visibility: 10mi
Dew Point: 24°   Wind: 16mph
Humidity: 76%   Direction: 310°NW
Pressure: 30.36"   Gusts: NA
Location:  37.03°N, 93.47°W
Report Text: KSGF 270652Z 31014KT 10SM OVC023 M01/M04 A3036 RMK AO2 PK WND 34027/0600 SLP287 T10061044
Loading
Personal Weather Stations






























Interactive Weather Map New forecast layout! Learn more

10-Day Weather Forecast

Advertisements
Track Severe Weather on mobile